PWSweather.com
Personal Weather Stations
Station Observations
KKYBOWLI8
Greystone Ii, Bowling Green, KY 42101

Greystone IiBowling Green, KY 42101

Lat: 36.9238, Lon: -86.5206

Elevation: 600

Station Type: Davis Vantage Pro2

www.sokyweather.com

High Low Average
Temperature 55.1°F12.8°F 53.1°F11.7°F 53.9°F12.2°F
Dew Point 55.1°F12.8°F 53.1°F11.7°F 53.9°F12.2°F
Winds 1.7 mph -2.7 mph - Calm Calm 0.8 mph 1.3 mph
Wind Gusts 8.0 mph12.9 mph 2.0 mph3.2 mph 5.2 mph8.4 mph
Humidity 100% 100% 100%
Pressure 30.10 in1019.30 in 30.07 in1018.30 in -
Precipitation 1.08 in27.40 in - -
Hour Temp Dew Point Humidity Winds Wind Gusts Pressure Precip Precip Rate Daily Precip Total
08:40 PM 55.1°F12.8°C 55.1°F12.8°C 100% 1.7 mph NW2.7 kmh NW 8.0 mph12.9 kmh 30.08 in1018.6 mb 0.06 in1.5 mm 0.09 in2.3 mm 0.09 in2.3 mm
08:50 PM 54.8°F12.7°C 54.8°F12.7°C 100% 1.5 mph W2.4 kmh W 5.0 mph8.0 kmh 30.07 in1018.3 mb 0.06 in1.5 mm 0.00 in0.0 mm 0.09 in2.3 mm
09:00 PM 54.7°F12.6°C 54.7°F12.6°C 100% 0.2 mph W0.3 kmh W 2.0 mph3.2 kmh 30.07 in1018.3 mb 0.02 in0.5 mm 0.00 in0.0 mm 0.10 in2.5 mm
09:10 PM 54.5°F12.5°C 54.5°F12.5°C 100% Calm Calm 3.0 mph4.8 kmh 30.07 in1018.3 mb 0.03 in0.8 mm 0.06 in1.5 mm 0.11 in2.8 mm
09:20 PM 54.5°F12.5°C 54.5°F12.5°C 100% Calm Calm 3.0 mph4.8 kmh 30.07 in1018.3 mb 0.03 in0.8 mm 0.00 in0.0 mm 0.11 in2.8 mm
09:30 PM 54.4°F12.4°C 54.4°F12.4°C 100% Calm Calm 4.0 mph6.4 kmh 30.08 in1018.6 mb 0.04 in1.0 mm 0.06 in1.5 mm 0.12 in3.0 mm
09:40 PM 54.4°F12.4°C 54.4°F12.4°C 100% 0.8 mph W1.3 kmh W 4.0 mph6.4 kmh 30.09 in1019.0 mb 0.05 in1.3 mm 0.06 in1.5 mm 0.14 in3.6 mm
09:50 PM 54.2°F12.3°C 54.2°F12.3°C 100% 1.0 mph NW1.6 kmh NW 7.0 mph11.3 kmh 30.09 in1019.0 mb 0.07 in1.8 mm 0.12 in3.0 mm 0.16 in4.1 mm
10:00 PM 54.1°F12.3°C 54.1°F12.3°C 100% 1.0 mph WNW1.6 kmh WNW 5.0 mph8.0 kmh 30.09 in1019.0 mb 0.07 in1.8 mm 0.00 in0.0 mm 0.17 in4.3 mm
10:10 PM 53.8°F12.1°C 53.8°F12.1°C 100% 1.0 mph NW1.6 kmh NW 6.0 mph9.7 kmh 30.10 in1019.3 mb 0.06 in1.5 mm 0.00 in0.0 mm 0.17 in4.3 mm
10:20 PM 53.6°F12.0°C 53.6°F12.0°C 100% 0.8 mph WNW1.3 kmh WNW 8.0 mph12.9 kmh 30.10 in1019.3 mb 0.07 in1.8 mm 0.06 in1.5 mm 0.18 in4.6 mm
10:30 PM 53.6°F12.0°C 53.6°F12.0°C 100% 0.9 mph W1.4 kmh W 3.0 mph4.8 kmh 30.10 in1019.3 mb 0.06 in1.5 mm 0.00 in0.0 mm 0.18 in4.6 mm
10:40 PM 53.5°F11.9°C 53.5°F11.9°C 100% 0.9 mph WSW1.4 kmh WSW 7.0 mph11.3 kmh 30.10 in1019.3 mb 0.06 in1.5 mm 0.00 in0.0 mm 0.20 in5.1 mm
10:50 PM 53.5°F11.9°C 53.5°F11.9°C 100% 0.3 mph WSW0.5 kmh WSW 4.0 mph6.4 kmh 30.10 in1019.3 mb 0.05 in1.3 mm 0.00 in0.0 mm 0.21 in5.3 mm
11:00 PM 53.4°F11.9°C 53.4°F11.9°C 100% 0.9 mph W1.4 kmh W 5.0 mph8.0 kmh 30.10 in1019.3 mb 0.05 in1.3 mm 0.00 in0.0 mm 0.22 in5.6 mm
11:10 PM 53.4°F11.9°C 53.4°F11.9°C 100% 0.6 mph W1.0 kmh W 6.0 mph9.7 kmh 30.10 in1019.3 mb 0.06 in1.5 mm 0.06 in1.5 mm 0.23 in5.8 mm
11:20 PM 53.2°F11.8°C 53.2°F11.8°C 100% 1.0 mph NW1.6 kmh NW 5.0 mph8.0 kmh 30.09 in1019.0 mb 0.06 in1.5 mm 0.00 in0.0 mm 0.24 in6.1 mm
11:30 PM 53.2°F11.8°C 53.2°F11.8°C 100% Calm Calm 5.0 mph8.0 kmh 30.09 in1019.0 mb 0.07 in1.8 mm 0.06 in1.5 mm 0.25 in6.4 mm
11:40 PM 53.2°F11.8°C 53.2°F11.8°C 100% 0.9 mph W1.4 kmh W 6.0 mph9.7 kmh 30.09 in1019.0 mb 0.06 in1.5 mm 0.00 in0.0 mm 0.26 in6.6 mm
11:50 PM 53.1°F11.7°C 53.1°F11.7°C 100% 1.7 mph W2.7 kmh W 8.0 mph12.9 kmh 30.09 in1019.0 mb 0.05 in1.3 mm 0.00 in0.0 mm 0.26 in6.6 mm